Time;durP1;ratioP1;P1;durP2;ratioP2;P2;SDS_P1;SDS_P2;PMS_P1;PMS_P2;Temp;Humidity;BMP_temperature;BMP_pressure;BME280_temperature;BME280_humidity;BME280_pressure;Samples;Min_cycle;Max_cycle;Signal;HPM_P1;HPM_P2
2021/06/19 00:00:31;;;;;;;3.25;2.95;;;21.40;99.90;;;;;;5077444;28;20743;-89
2021/06/19 00:02:58;;;;;;;3.05;2.70;;;21.30;99.90;;;;;;5077121;28;20673;-89
2021/06/19 00:05:24;;;;;;;3.45;3.15;;;21.30;99.90;;;;;;5077214;28;20231;-89
2021/06/19 00:07:50;;;;;;;4.53;3.13;;;21.30;99.90;;;;;;5077880;28;20147;-89
2021/06/19 00:10:17;;;;;;;3.90;3.20;;;21.30;99.90;;;;;;5076484;28;20016;-89
2021/06/19 00:12:44;;;;;;;4.40;3.30;;;21.30;99.90;;;;;;5076379;28;20111;-89
2021/06/19 00:15:12;;;;;;;3.83;2.97;;;21.20;99.90;;;;;;5077591;28;20029;-89
2021/06/19 00:17:39;;;;;;;3.40;3.08;;;21.20;99.90;;;;;;5076415;28;20025;-89
2021/06/19 00:20:11;;;;;;;3.20;3.00;;;21.20;99.90;;;;;;5076545;28;20028;-89
2021/06/19 00:22:37;;;;;;;3.08;2.78;;;21.20;99.90;;;;;;5076382;28;20397;-89
2021/06/19 00:25:04;;;;;;;3.40;2.63;;;21.20;99.90;;;;;;5076097;28;20029;-89
2021/06/19 00:27:30;;;;;;;3.03;2.50;;;21.10;99.90;;;;;;5075107;28;20512;-89
2021/06/19 00:29:55;;;;;;;4.10;2.40;;;21.00;99.90;;;;;;5076121;28;20024;-89
2021/06/19 00:32:21;;;;;;;3.83;2.83;;;21.00;99.90;;;;;;5076037;28;20025;-89
2021/06/19 00:34:47;;;;;;;4.93;3.00;;;21.00;99.90;;;;;;5076038;28;20511;-89
2021/06/19 00:37:13;;;;;;;5.57;3.20;;;20.90;99.90;;;;;;5077379;28;20024;-89
2021/06/19 00:39:39;;;;;;;6.93;3.50;;;21.00;99.90;;;;;;5077273;28;20016;-89
2021/06/19 00:42:05;;;;;;;3.55;3.00;;;20.90;99.90;;;;;;5075262;28;20119;-90
2021/06/19 00:44:31;;;;;;;5.55;3.22;;;20.90;99.90;;;;;;5075908;28;20089;-89
2021/06/19 00:46:57;;;;;;;4.20;3.05;;;20.90;99.90;;;;;;5075292;28;20024;-90
2021/06/19 00:49:25;;;;;;;5.13;3.20;;;20.90;99.90;;;;;;5075817;28;20021;-91
2021/06/19 00:51:51;;;;;;;3.20;2.90;;;20.70;99.90;;;;;;5075541;28;20069;-90
2021/06/19 00:54:18;;;;;;;3.22;2.92;;;20.70;99.90;;;;;;5075692;28;20029;-90
2021/06/19 00:56:44;;;;;;;3.58;2.90;;;20.70;99.90;;;;;;5084506;28;20004;-89
2021/06/19 00:59:10;;;;;;;3.45;2.97;;;20.60;99.90;;;;;;5078054;28;20157;-90
2021/06/19 01:01:36;;;;;;;3.88;3.50;;;20.60;99.90;;;;;;5076154;28;20051;-89
2021/06/19 01:04:04;;;;;;;4.78;4.07;;;20.40;99.90;;;;;;5075352;28;20032;-89
2021/06/19 01:06:31;;;;;;;7.68;4.97;;;20.40;99.90;;;;;;5075299;28;20028;-89
2021/06/19 01:08:57;;;;;;;5.00;4.25;;;20.20;99.90;;;;;;5075523;28;20048;-89
2021/06/19 01:11:24;;;;;;;10.57;5.15;;;20.20;99.90;;;;;;5075528;28;20021;-89
2021/06/19 01:13:50;;;;;;;6.75;6.10;;;20.10;99.90;;;;;;5076864;28;20063;-89
2021/06/19 01:16:20;;;;;;;7.60;5.97;;;20.00;99.90;;;;;;5075218;28;20012;-88
2021/06/19 01:18:46;;;;;;;6.82;6.22;;;20.00;99.90;;;;;;5076424;28;20036;-89
2021/06/19 01:21:23;;;;;;;7.90;7.05;;;19.90;99.90;;;;;;5075259;28;20035;-89
2021/06/19 01:23:51;;;;;;;13.18;8.77;;;19.90;99.90;;;;;;5075332;28;20377;-89
2021/06/19 01:26:22;;;;;;;7.70;7.00;;;19.80;99.90;;;;;;5074604;28;20037;-89
2021/06/19 01:28:50;;;;;;;8.90;7.45;;;19.80;99.90;;;;;;5074445;28;20025;-89
2021/06/19 01:31:16;;;;;;;8.68;7.90;;;19.80;99.90;;;;;;5075140;28;20465;-89
2021/06/19 01:33:44;;;;;;;8.93;8.05;;;19.80;99.90;;;;;;5074601;28;20025;-89
2021/06/19 01:36:11;;;;;;;10.23;8.85;;;19.80;99.90;;;;;;5074917;28;20052;-89
2021/06/19 01:38:42;;;;;;;9.43;8.45;;;19.80;99.90;;;;;;5075919;28;20025;-90
2021/06/19 01:41:18;;;;;;;9.70;8.30;;;19.70;99.90;;;;;;5074694;28;20818;-90
2021/06/19 01:43:46;;;;;;;10.50;9.50;;;19.70;99.90;;;;;;5074817;28;20036;-89
2021/06/19 01:46:13;;;;;;;10.82;9.38;;;19.60;99.90;;;;;;5074733;28;20541;-89
2021/06/19 01:48:40;;;;;;;9.77;8.80;;;19.60;99.90;;;;;;5075877;28;20048;-90
2021/06/19 01:51:11;;;;;;;9.73;8.73;;;19.60;99.90;;;;;;5074588;28;20020;-89
2021/06/19 01:53:41;;;;;;;9.57;7.43;;;19.60;99.90;;;;;;5074580;28;20119;-90
2021/06/19 01:56:08;;;;;;;10.10;8.43;;;19.60;99.90;;;;;;5074494;28;20130;-89
2021/06/19 01:58:34;;;;;;;12.15;8.52;;;19.60;99.90;;;;;;5074243;28;20115;-90
2021/06/19 02:01:00;;;;;;;10.52;8.52;;;19.60;99.90;;;;;;5074502;28;20055;-90
2021/06/19 02:03:26;;;;;;;11.80;7.50;;;19.50;99.90;;;;;;5074390;28;20111;-90
2021/06/19 02:05:52;;;;;;;11.07;9.23;;;19.50;99.90;;;;;;5074194;28;20123;-90
2021/06/19 02:08:19;;;;;;;11.80;10.43;;;19.30;99.90;;;;;;5074366;28;20017;-90
2021/06/19 02:10:45;;;;;;;11.52;9.32;;;19.10;99.90;;;;;;5074348;28;20032;-90
2021/06/19 02:13:11;;;;;;;11.20;8.73;;;19.10;99.90;;;;;;5074370;28;20373;-90
2021/06/19 02:15:40;;;;;;;9.73;8.23;;;18.90;99.90;;;;;;5074257;28;20477;-90
2021/06/19 02:18:06;;;;;;;9.85;7.32;;;18.90;99.90;;;;;;5073688;28;20032;-90
2021/06/19 02:20:32;;;;;;;10.30;7.88;;;18.90;99.90;;;;;;5074336;28;20099;-90
2021/06/19 02:22:58;;;;;;;8.35;7.55;;;18.90;99.90;;;;;;5074649;28;20392;-91
2021/06/19 02:25:28;;;;;;;8.43;7.35;;;18.90;99.90;;;;;;5073990;28;20052;-91
2021/06/19 02:28:04;;;;;;;8.77;7.60;;;18.80;99.90;;;;;;5073998;28;20051;-90
2021/06/19 02:30:35;;;;;;;7.90;7.10;;;18.80;99.90;;;;;;5074102;28;20016;-90
2021/06/19 02:33:01;;;;;;;9.32;8.20;;;18.80;99.90;;;;;;5075144;28;20482;-90
2021/06/19 02:35:29;;;;;;;12.20;8.27;;;18.90;99.90;;;;;;5073943;28;20486;-89
2021/06/19 02:37:57;;;;;;;8.60;7.68;;;18.80;99.90;;;;;;5073856;28;20438;-90
2021/06/19 02:40:23;;;;;;;9.60;6.88;;;18.80;99.90;;;;;;5073705;28;20115;-90
2021/06/19 02:42:49;;;;;;;9.52;7.35;;;18.80;99.90;;;;;;5076171;28;20110;-91
2021/06/19 02:45:15;;;;;;;11.13;7.72;;;18.70;99.90;;;;;;5073880;28;20473;-89
2021/06/19 02:47:46;;;;;;;10.60;8.57;;;18.60;99.90;;;;;;5074952;28;20381;-89
2021/06/19 02:50:14;;;;;;;11.13;8.52;;;18.70;99.90;;;;;;5074468;28;20103;-89
2021/06/19 02:52:41;;;;;;;9.90;8.88;;;18.60;99.90;;;;;;5081661;28;20029;-90
2021/06/19 02:55:12;;;;;;;12.18;9.48;;;18.60;99.90;;;;;;5080498;28;20062;-90
2021/06/19 02:57:38;;;;;;;11.95;10.05;;;18.60;99.90;;;;;;5080763;28;20024;-90
2021/06/19 03:00:06;;;;;;;10.98;9.85;;;18.50;99.90;;;;;;5080434;28;20025;-90
2021/06/19 03:02:32;;;;;;;10.98;9.88;;;18.50;99.90;;;;;;5081563;28;20400;-91
2021/06/19 03:04:58;;;;;;;10.95;9.73;;;18.50;99.90;;;;;;5080439;28;20031;-90
2021/06/19 03:07:24;;;;;;;10.90;9.45;;;18.50;99.90;;;;;;5079741;28;20048;-90
2021/06/19 03:09:50;;;;;;;11.25;9.25;;;18.50;99.90;;;;;;5081140;28;20021;-91
2021/06/19 03:12:15;;;;;;;10.98;9.02;;;18.50;99.90;;;;;;5079966;28;20489;-90
2021/06/19 03:14:41;;;;;;;10.05;9.00;;;18.50;99.90;;;;;;5080348;28;20054;-89
2021/06/19 03:17:07;;;;;;;11.30;8.13;;;18.40;99.90;;;;;;5082406;28;20095;-90
2021/06/19 03:19:33;;;;;;;10.25;7.57;;;18.40;99.90;;;;;;5080303;28;20085;-90
2021/06/19 03:21:59;;;;;;;7.93;6.72;;;18.40;99.90;;;;;;5081252;28;20028;-90
2021/06/19 03:24:25;;;;;;;7.65;6.68;;;18.40;99.90;;;;;;5080068;28;20028;-90
2021/06/19 03:26:51;;;;;;;7.80;7.03;;;18.30;99.90;;;;;;5083178;28;20393;-89
2021/06/19 03:29:17;;;;;;;11.23;7.50;;;18.20;99.90;;;;;;5081749;28;20100;-90
2021/06/19 03:31:42;;;;;;;8.55;6.97;;;18.10;99.90;;;;;;5080060;28;20032;-90
2021/06/19 03:34:08;;;;;;;9.95;8.25;;;18.00;99.90;;;;;;5063509;28;20136;-90
2021/06/19 03:36:34;;;;;;;9.50;7.90;;;18.00;99.90;;;;;;5080982;28;20025;-89
2021/06/19 03:39:00;;;;;;;9.95;7.85;;;18.00;99.90;;;;;;5081004;28;20040;-90
2021/06/19 03:41:26;;;;;;;10.10;8.05;;;17.90;99.90;;;;;;5079885;28;20711;-90
2021/06/19 03:43:52;;;;;;;10.18;8.65;;;18.00;99.90;;;;;;5079851;28;20066;-88
2021/06/19 03:46:17;;;;;;;10.05;8.30;;;18.10;99.90;;;;;;5078863;28;20020;-88
2021/06/19 03:48:43;;;;;;;11.77;8.82;;;18.10;99.90;;;;;;5079961;28;20028;-88
2021/06/19 03:51:09;;;;;;;11.38;8.52;;;18.10;99.90;;;;;;5079512;28;20115;-88
2021/06/19 03:53:34;;;;;;;10.68;8.23;;;18.30;99.90;;;;;;5079583;28;20028;-88
2021/06/19 03:56:00;;;;;;;9.38;8.23;;;18.30;99.90;;;;;;5079470;28;20051;-88
2021/06/19 03:58:25;;;;;;;12.45;8.43;;;18.30;99.90;;;;;;5079898;28;20027;-88
2021/06/19 04:00:51;;;;;;;10.63;7.80;;;18.20;99.90;;;;;;5079881;28;20043;-88
2021/06/19 04:03:17;;;;;;;9.55;8.05;;;18.20;99.90;;;;;;5077279;28;20358;-89
2021/06/19 04:05:42;;;;;;;9.50;8.00;;;18.20;99.90;;;;;;5076830;28;20035;-90
2021/06/19 04:08:08;;;;;;;9.40;7.63;;;18.10;99.90;;;;;;5076953;28;20016;-89
2021/06/19 04:10:33;;;;;;;8.70;7.15;;;18.20;99.90;;;;;;5076915;28;20115;-89
2021/06/19 04:12:59;;;;;;;9.50;7.22;;;18.20;99.90;;;;;;5077773;28;20024;-90
2021/06/19 04:15:25;;;;;;;9.82;7.07;;;18.10;99.90;;;;;;5077099;28;20392;-89
2021/06/19 04:17:51;;;;;;;7.20;5.97;;;18.10;99.90;;;;;;5076750;28;20011;-89
2021/06/19 04:20:17;;;;;;;8.45;6.90;;;17.90;99.90;;;;;;5077150;28;20028;-89
2021/06/19 04:22:43;;;;;;;8.88;6.30;;;17.70;99.90;;;;;;5077791;28;20005;-90
2021/06/19 04:25:10;;;;;;;8.45;7.07;;;17.50;99.90;;;;;;5077236;28;20024;-90
2021/06/19 04:27:45;;;;;;;10.07;7.55;;;17.50;99.90;;;;;;5078530;28;20051;-90
2021/06/19 04:30:13;;;;;;;9.73;7.30;;;17.50;99.90;;;;;;5078155;28;20047;-91
2021/06/19 04:32:39;;;;;;;9.65;7.47;;;17.50;99.90;;;;;;5078151;28;20035;-90
2021/06/19 04:35:05;;;;;;;9.75;7.38;;;17.60;99.90;;;;;;5077494;28;20052;-91
2021/06/19 04:37:31;;;;;;;11.02;8.73;;;17.60;99.90;;;;;;5076110;28;20028;-91
2021/06/19 04:40:11;;;;;;;10.48;8.65;;;17.50;99.90;;;;;;5075818;28;20082;-91
2021/06/19 04:42:41;;;;;;;9.15;7.30;;;17.50;99.90;;;;;;5076757;28;20023;-91
2021/06/19 04:45:09;;;;;;;8.52;7.63;;;17.50;99.90;;;;;;5076910;28;20048;-91
2021/06/19 04:47:36;;;;;;;9.98;8.25;;;17.50;99.90;;;;;;5075910;28;20060;-91
2021/06/19 04:50:05;;;;;;;8.98;7.80;;;17.50;99.90;;;;;;5075945;28;20046;-90
2021/06/19 04:52:32;;;;;;;8.88;7.07;;;17.60;99.90;;;;;;5076459;28;20057;-91
2021/06/19 04:54:58;;;;;;;9.05;7.70;;;17.60;99.90;;;;;;5076101;28;20465;-90
2021/06/19 04:57:23;;;;;;;9.43;7.60;;;17.60;99.90;;;;;;5077010;28;20069;-90
2021/06/19 04:59:49;;;;;;;12.15;7.75;;;17.70;99.90;;;;;;5076566;28;20024;-90
2021/06/19 05:02:15;;;;;;;8.65;7.80;;;17.70;99.90;;;;;;5075677;28;20082;-89
2021/06/19 05:04:41;;;;;;;11.07;8.30;;;17.80;99.90;;;;;;5075957;28;20423;-90
2021/06/19 05:07:07;;;;;;;10.50;8.43;;;17.80;99.90;;;;;;5076702;28;20023;-91
2021/06/19 05:09:33;;;;;;;10.75;8.75;;;17.70;99.90;;;;;;5075416;28;20070;-90
2021/06/19 05:11:58;;;;;;;12.82;10.18;;;17.50;99.90;;;;;;5078911;28;20084;-89
2021/06/19 05:14:24;;;;;;;13.93;10.38;;;17.50;99.90;;;;;;5082074;28;20028;-89
2021/06/19 05:16:50;;;;;;;13.75;10.38;;;17.50;99.90;;;;;;5077189;28;20050;-90
2021/06/19 05:19:18;;;;;;;13.30;10.43;;;17.50;99.90;;;;;;5074944;28;20066;-90
2021/06/19 05:21:44;;;;;;;11.32;10.13;;;17.50;99.90;;;;;;5075071;28;20055;-91
2021/06/19 05:24:11;;;;;;;12.55;11.20;;;17.60;99.90;;;;;;5076389;28;20060;-90
2021/06/19 05:26:38;;;;;;;14.43;10.80;;;17.60;99.90;;;;;;5076309;28;20147;-90
2021/06/19 05:29:04;;;;;;;14.25;10.75;;;17.70;99.90;;;;;;5076517;28;20039;-90
2021/06/19 05:31:30;;;;;;;11.30;10.13;;;17.70;99.90;;;;;;5075649;28;20028;-90
2021/06/19 05:33:55;;;;;;;14.85;10.95;;;17.80;99.90;;;;;;5077833;28;20024;-89
2021/06/19 05:36:21;;;;;;;14.90;11.15;;;17.90;99.90;;;;;;5077317;28;20025;-90
2021/06/19 05:38:47;;;;;;;12.25;10.80;;;17.90;99.90;;;;;;5074637;28;20025;-90
2021/06/19 05:41:12;;;;;;;15.40;11.85;;;17.80;99.90;;;;;;5075802;28;20031;-90
2021/06/19 05:43:38;;;;;;;12.90;11.57;;;17.80;99.90;;;;;;5075768;28;20111;-90
2021/06/19 05:46:04;;;;;;;16.00;12.70;;;17.70;99.90;;;;;;5074626;28;20064;-89
2021/06/19 05:48:30;;;;;;;12.30;11.05;;;17.80;99.90;;;;;;5075657;28;20028;-90
2021/06/19 05:50:55;;;;;;;13.23;10.95;;;18.00;99.90;;;;;;5075171;28;20020;-91
2021/06/19 05:53:23;;;;;;;12.73;10.98;;;18.10;99.90;;;;;;5074478;28;20492;-90
2021/06/19 05:55:49;;;;;;;12.65;11.35;;;18.20;99.90;;;;;;5076391;28;20358;-90
2021/06/19 05:58:14;;;;;;;13.48;11.95;;;18.10;99.90;;;;;;5074993;28;20035;-91
2021/06/19 06:00:40;;;;;;;15.50;12.65;;;18.00;99.90;;;;;;5074581;28;20384;-91
2021/06/19 06:03:06;;;;;;;20.65;14.18;;;17.90;99.90;;;;;;5077497;28;20028;-91
2021/06/19 06:05:32;;;;;;;18.17;15.13;;;17.90;99.90;;;;;;5074828;28;20020;-91
2021/06/19 06:08:00;;;;;;;21.02;16.08;;;18.10;99.90;;;;;;5074779;28;20021;-90
2021/06/19 06:10:26;;;;;;;17.42;15.52;;;18.20;99.90;;;;;;5074005;28;20116;-90
2021/06/19 06:12:52;;;;;;;20.98;15.95;;;18.40;99.90;;;;;;5073780;28;20020;-91
2021/06/19 06:15:18;;;;;;;19.10;14.95;;;18.40;99.90;;;;;;5077198;28;20052;-90
2021/06/19 06:17:43;;;;;;;19.08;15.07;;;18.30;99.90;;;;;;5074046;28;20038;-89
2021/06/19 06:20:10;;;;;;;18.27;14.65;;;18.40;99.90;;;;;;5075513;28;20954;-89
2021/06/19 06:22:36;;;;;;;16.58;14.35;;;18.40;99.90;;;;;;5074562;28;20031;-90
2021/06/19 06:25:02;;;;;;;17.17;14.40;;;18.50;99.90;;;;;;5072977;28;20132;-90
2021/06/19 06:27:28;;;;;;;17.98;13.45;;;18.50;99.90;;;;;;5075399;28;20131;-90
2021/06/19 06:29:53;;;;;;;19.42;14.23;;;18.60;99.90;;;;;;5077562;28;20056;-90
2021/06/19 06:32:21;;;;;;;18.35;13.00;;;18.50;99.90;;;;;;5077134;28;20024;-90
2021/06/19 06:34:46;;;;;;;17.52;14.43;;;18.60;99.90;;;;;;5076550;28;20035;-90
2021/06/19 06:37:12;;;;;;;19.13;14.07;;;18.70;99.90;;;;;;5076834;28;20412;-90
2021/06/19 06:39:38;;;;;;;20.90;14.68;;;18.60;99.90;;;;;;5075447;28;20034;-90
2021/06/19 06:42:04;;;;;;;19.63;13.90;;;18.40;99.90;;;;;;5076610;28;20478;-89
2021/06/19 06:44:30;;;;;;;19.92;15.15;;;18.30;99.90;;;;;;5073904;28;20036;-90
2021/06/19 06:46:55;;;;;;;21.05;14.73;;;18.20;99.90;;;;;;5076989;28;20029;-91
2021/06/19 06:49:21;;;;;;;19.23;15.40;;;18.10;99.90;;;;;;5073816;28;20385;-91
2021/06/19 06:51:47;;;;;;;19.92;15.52;;;18.10;99.90;;;;;;5074502;28;20020;-91
2021/06/19 06:54:14;;;;;;;22.40;14.57;;;18.20;99.90;;;;;;5075866;28;20434;-90
2021/06/19 06:56:40;;;;;;;18.25;13.50;;;18.20;99.90;;;;;;5075568;28;20487;-90
2021/06/19 06:59:06;;;;;;;17.73;12.82;;;18.30;99.90;;;;;;5073761;28;20021;-90
2021/06/19 07:01:32;;;;;;;16.60;12.98;;;18.40;99.90;;;;;;5074958;28;20025;-91
2021/06/19 07:03:59;;;;;;;17.50;13.15;;;18.20;99.90;;;;;;5075146;28;20055;-91
2021/06/19 07:06:25;;;;;;;20.02;14.43;;;18.10;99.90;;;;;;5075002;28;20028;-90
2021/06/19 07:08:52;;;;;;;18.45;13.43;;;18.20;99.90;;;;;;5074811;28;20028;-89
2021/06/19 07:11:21;;;;;;;22.88;14.88;;;18.30;99.90;;;;;;5073830;28;20070;-90
2021/06/19 07:13:47;;;;;;;20.90;14.95;;;18.20;99.90;;;;;;5074839;28;20107;-92
2021/06/19 07:16:12;;;;;;;21.05;15.02;;;18.20;99.90;;;;;;5072846;28;20051;-92
2021/06/19 07:18:38;;;;;;;23.48;15.35;;;18.30;99.90;;;;;;5075418;28;20025;-90
2021/06/19 07:21:04;;;;;;;23.45;14.93;;;18.30;99.90;;;;;;5074588;28;20020;-91
2021/06/19 07:23:30;;;;;;;23.88;16.52;;;18.20;99.90;;;;;;5075649;28;20055;-90
2021/06/19 07:26:00;;;;;;;23.55;15.30;;;18.10;99.90;;;;;;5076310;28;20082;-91
2021/06/19 07:28:25;;;;;;;20.15;14.95;;;18.10;99.90;;;;;;5073927;28;20033;-91
2021/06/19 07:30:51;;;;;;;20.48;14.77;;;18.20;99.90;;;;;;5076616;28;20032;-90
2021/06/19 07:33:17;;;;;;;18.05;13.52;;;18.10;99.90;;;;;;5074283;28;20035;-91
2021/06/19 07:35:42;;;;;;;18.33;14.77;;;18.10;99.90;;;;;;5075228;28;20051;-90
2021/06/19 07:38:08;;;;;;;20.80;14.80;;;18.10;99.90;;;;;;5077397;28;20024;-90
2021/06/19 07:40:34;;;;;;;19.15;12.93;;;18.10;99.90;;;;;;5079676;28;20025;-90
2021/06/19 07:43:00;;;;;;;18.77;11.80;;;18.30;99.90;;;;;;5079040;28;20029;-90
2021/06/19 07:45:26;;;;;;;17.48;11.52;;;18.50;99.90;;;;;;5077093;28;20084;-90
2021/06/19 07:47:52;;;;;;;13.38;11.15;;;18.70;99.90;;;;;;5078083;28;20508;-91
2021/06/19 07:50:17;;;;;;;15.13;11.50;;;18.60;99.90;;;;;;5078712;28;20012;-90
2021/06/19 07:52:43;;;;;;;14.82;11.85;;;18.60;99.90;;;;;;5078320;28;20032;-90
2021/06/19 07:55:10;;;;;;;20.05;14.70;;;18.60;99.90;;;;;;5076256;28;20052;-90
2021/06/19 07:57:36;;;;;;;16.23;13.98;;;18.50;99.90;;;;;;5076054;28;20032;-91
2021/06/19 08:00:02;;;;;;;30.52;19.35;;;18.40;99.90;;;;;;5077435;28;20082;-90
2021/06/19 08:02:28;;;;;;;29.80;16.98;;;18.60;99.90;;;;;;5076445;28;20439;-90
2021/06/19 08:04:54;;;;;;;18.83;14.00;;;18.70;99.90;;;;;;5077884;28;20024;-91
2021/06/19 08:07:20;;;;;;;18.23;14.82;;;18.80;99.90;;;;;;5080104;28;20123;-90
2021/06/19 08:09:46;;;;;;;21.48;15.18;;;18.90;99.90;;;;;;5079249;28;20044;-90
2021/06/19 08:12:11;;;;;;;27.80;18.75;;;19.20;99.90;;;;;;5077332;28;20023;-91
2021/06/19 08:14:37;;;;;;;19.30;14.05;;;19.50;99.90;;;;;;5076624;28;20035;-90
2021/06/19 08:17:08;;;;;;;23.00;13.20;;;19.60;99.90;;;;;;5076755;28;20025;-90
2021/06/19 08:19:34;;;;;;;16.55;12.27;;;19.80;99.90;;;;;;5079711;28;20028;-89
2021/06/19 08:22:01;;;;;;;17.75;10.88;;;19.80;99.90;;;;;;5078194;28;20112;-90
2021/06/19 08:24:27;;;;;;;14.52;10.68;;;19.60;99.90;;;;;;5079104;28;20026;-90
2021/06/19 08:26:53;;;;;;;14.52;10.27;;;19.80;99.90;;;;;;5085771;28;20123;-90
2021/06/19 08:29:18;;;;;;;12.70;9.40;;;19.80;99.90;;;;;;5093258;28;20028;-90
2021/06/19 08:31:44;;;;;;;13.02;8.25;;;20.10;99.90;;;;;;5084886;28;20025;-90
2021/06/19 08:34:10;;;;;;;12.38;8.48;;;20.30;99.90;;;;;;5084995;28;20106;-90
2021/06/19 08:36:36;;;;;;;11.15;7.38;;;20.40;99.90;;;;;;5083804;28;20052;-90
2021/06/19 08:39:02;;;;;;;8.57;6.53;;;20.60;99.90;;;;;;5077562;28;20492;-89
2021/06/19 08:41:28;;;;;;;8.02;6.07;;;20.80;99.90;;;;;;5079332;28;20039;-89
2021/06/19 08:43:54;;;;;;;7.25;5.55;;;20.80;99.90;;;;;;5079908;28;20036;-90
2021/06/19 08:46:22;;;;;;;12.82;5.80;;;20.70;99.90;;;;;;5075978;28;20027;-89
2021/06/19 08:48:51;;;;;;;7.43;5.20;;;20.80;99.90;;;;;;5075074;28;20024;-89
2021/06/19 08:51:21;;;;;;;8.20;4.38;;;20.80;99.90;;;;;;5079219;28;20052;-90
2021/06/19 08:53:50;;;;;;;12.48;6.22;;;20.60;99.90;;;;;;5077898;28;20044;-89
2021/06/19 08:56:18;;;;;;;4.57;3.88;;;20.60;99.90;;;;;;5077919;28;20067;-89
2021/06/19 08:58:45;;;;;;;4.50;4.10;;;20.60;99.90;;;;;;5076564;28;20111;-90
2021/06/19 09:01:11;;;;;;;5.38;4.18;;;20.50;99.90;;;;;;5075603;28;20027;-90
2021/06/19 09:03:38;;;;;;;7.60;4.50;;;20.60;99.90;;;;;;5076626;28;20055;-90
2021/06/19 09:06:27;;;;;;;4.50;4.10;;;21.00;99.90;;;;;;5078498;28;20071;-89
2021/06/19 09:09:10;;;;;;;4.15;3.75;;;21.10;99.90;;;;;;5077200;28;20504;-90
2021/06/19 09:11:44;;;;;;;4.85;3.83;;;21.10;99.90;;;;;;5076647;28;20069;-90
2021/06/19 09:14:22;;;;;;;4.82;4.18;;;21.00;99.90;;;;;;5078032;28;20034;-90
2021/06/19 09:17:02;;;;;;;4.70;4.30;;;20.60;99.90;;;;;;5074944;28;20025;-90
2021/06/19 09:19:36;;;;;;;4.47;4.05;;;20.60;99.90;;;;;;5075663;28;20029;-89
2021/06/19 09:22:13;;;;;;;7.13;4.40;;;20.60;99.90;;;;;;5075090;28;20562;-89
2021/06/19 09:24:59;;;;;;;5.07;4.32;;;20.70;99.90;;;;;;5077073;28;20031;-89
2021/06/19 09:27:33;;;;;;;5.07;4.15;;;20.80;99.90;;;;;;5074183;28;20040;-89
2021/06/19 09:30:12;;;;;;;5.88;4.35;;;20.70;99.90;;;;;;5074919;28;20389;-89
2021/06/19 09:32:42;;;;;;;5.22;4.63;;;20.60;99.90;;;;;;5075540;28;20030;-90
2021/06/19 09:35:18;;;;;;;6.20;5.00;;;20.40;99.90;;;;;;5075601;28;20024;-89
2021/06/19 09:37:49;;;;;;;5.53;5.00;;;20.20;99.90;;;;;;5078126;28;20020;-89
2021/06/19 09:40:34;;;;;;;5.85;5.10;;;20.00;99.90;;;;;;5076181;28;20182;-90
2021/06/19 09:43:07;;;;;;;6.45;5.43;;;19.50;99.90;;;;;;5074639;28;20077;-90
2021/06/19 09:45:32;;;;;;;8.27;4.63;;;19.30;99.90;;;;;;5075684;28;20028;-90
2021/06/19 09:47:58;;;;;;;5.18;4.25;;;19.50;99.90;;;;;;5074420;28;20024;-89
2021/06/19 09:50:24;;;;;;;5.18;4.68;;;19.70;99.90;;;;;;5077975;28;20063;-90
2021/06/19 09:52:51;;;;;;;6.30;4.95;;;19.90;99.90;;;;;;5075231;28;20024;-90
2021/06/19 09:55:18;;;;;;;5.97;5.03;;;20.00;99.90;;;;;;5076064;28;20028;-90
2021/06/19 09:57:49;;;;;;;5.32;4.25;;;20.20;99.90;;;;;;5075736;28;20029;-90
2021/06/19 10:00:20;;;;;;;4.60;4.15;;;20.40;99.90;;;;;;5075593;28;20024;-90
2021/06/19 10:02:47;;;;;;;8.75;4.70;;;20.80;99.90;;;;;;5077387;28;20024;-90
2021/06/19 10:05:13;;;;;;;7.43;4.97;;;20.90;99.90;;;;;;5076944;28;20028;-90
2021/06/19 10:07:39;;;;;;;5.75;4.10;;;21.20;99.90;;;;;;5076022;28;20031;-90
2021/06/19 10:10:09;;;;;;;9.02;4.30;;;21.10;99.90;;;;;;5075081;28;20529;-90
2021/06/19 10:12:37;;;;;;;5.57;4.30;;;21.10;99.90;;;;;;5075416;28;20032;-89
2021/06/19 10:15:09;;;;;;;4.28;3.80;;;21.10;99.90;;;;;;5076669;28;20032;-89
2021/06/19 10:17:38;;;;;;;5.22;4.60;;;21.00;99.90;;;;;;5074048;28;20058;-89
2021/06/19 10:20:07;;;;;;;4.85;4.03;;;21.20;99.90;;;;;;5074819;28;20036;-90
2021/06/19 10:22:34;;;;;;;7.13;4.70;;;21.10;99.90;;;;;;5077108;28;20115;-90
2021/06/19 10:25:09;;;;;;;7.75;4.78;;;21.10;99.90;;;;;;5074717;28;20059;-90
2021/06/19 10:27:44;;;;;;;5.80;4.57;;;21.10;99.90;;;;;;5074981;28;20094;-89
2021/06/19 10:30:11;;;;;;;4.38;4.05;;;21.10;99.90;;;;;;5074855;28;20027;-89
2021/06/19 10:32:46;;;;;;;5.07;4.13;;;21.30;99.90;;;;;;5075779;28;20040;-90
2021/06/19 10:35:15;;;;;;;4.90;4.43;;;21.20;99.90;;;;;;5076920;28;20028;-89
2021/06/19 10:37:42;;;;;;;4.93;3.92;;;21.40;99.90;;;;;;5073880;28;20032;-89
2021/06/19 10:40:28;;;;;;;4.80;4.40;;;21.60;99.90;;;;;;5075788;28;20024;-89
2021/06/19 10:43:16;;;;;;;5.57;4.65;;;21.60;99.90;;;;;;5075080;28;20034;-90
2021/06/19 10:45:43;;;;;;;5.40;4.75;;;21.90;99.90;;;;;;5074437;28;20507;-90
2021/06/19 10:48:12;;;;;;;5.03;4.55;;;21.80;99.90;;;;;;5074757;28;20485;-89
2021/06/19 10:50:40;;;;;;;6.68;4.95;;;21.80;99.90;;;;;;5073769;28;20027;-89
2021/06/19 10:53:14;;;;;;;5.80;5.18;;;21.70;99.90;;;;;;5076224;28;20438;-89
2021/06/19 10:55:42;;;;;;;6.80;6.18;;;21.50;99.90;;;;;;5075241;28;20085;-90
2021/06/19 10:58:28;;;;;;;7.18;6.30;;;20.90;99.90;;;;;;5073675;28;20071;-90
2021/06/19 11:00:58;;;;;;;7.05;6.22;;;20.70;99.90;;;;;;5075883;28;20060;-90
2021/06/19 11:03:47;;;;;;;7.20;5.90;;;20.60;99.90;;;;;;5076218;28;20590;-90
2021/06/19 11:06:26;;;;;;;7.90;6.70;;;20.60;99.90;;;;;;5075369;28;20028;-90
2021/06/19 11:09:18;;;;;;;7.13;6.43;;;20.80;99.90;;;;;;5077796;28;20036;-90
2021/06/19 11:11:47;;;;;;;8.05;6.93;;;21.00;99.90;;;;;;5077774;28;20017;-90
2021/06/19 11:14:13;;;;;;;9.15;7.65;;;21.10;99.90;;;;;;5079345;28;20025;-90
2021/06/19 11:16:41;;;;;;;9.70;7.05;;;20.90;99.90;;;;;;5086809;28;20031;-90
2021/06/19 11:19:06;;;;;;;7.60;6.70;;;20.80;99.90;;;;;;5089877;28;20036;-89
2021/06/19 11:21:33;;;;;;;11.05;6.80;;;20.70;99.90;;;;;;5088725;28;20094;-89
2021/06/19 11:24:01;;;;;;;8.27;7.47;;;20.90;99.90;;;;;;5086560;28;20059;-89
2021/06/19 11:27:00;;;;;;;11.35;7.65;;;21.00;99.90;;;;;;5082797;28;20646;-89
2021/06/19 11:29:35;;;;;;;8.35;7.18;;;21.20;99.90;;;;;;5078575;28;20546;-89
2021/06/19 11:32:20;;;;;;;7.90;6.47;;;21.70;99.90;;;;;;5079605;28;20100;-89
2021/06/19 11:34:46;;;;;;;7.88;7.15;;;21.60;99.90;;;;;;5078048;28;20028;-87
2021/06/19 11:37:11;;;;;;;8.32;6.95;;;21.70;99.90;;;;;;5081148;28;20385;-89
2021/06/19 11:39:37;;;;;;;9.77;7.65;;;21.90;99.90;;;;;;5077116;28;20031;-89
2021/06/19 11:42:03;;;;;;;8.30;7.00;;;21.40;99.90;;;;;;5077833;28;20134;-89
2021/06/19 11:44:34;;;;;;;9.10;7.18;;;21.30;99.90;;;;;;5077915;28;20028;-90
2021/06/19 11:47:03;;;;;;;8.30;7.30;;;21.30;99.90;;;;;;5079043;28;20461;-90
2021/06/19 11:49:32;;;;;;;8.50;7.68;;;21.50;99.90;;;;;;5078768;28;20028;-90
2021/06/19 11:51:59;;;;;;;8.45;7.07;;;21.40;99.90;;;;;;5077353;28;20080;-89
2021/06/19 11:54:25;;;;;;;7.93;6.75;;;21.20;99.90;;;;;;5077012;28;20044;-90
2021/06/19 11:56:57;;;;;;;8.05;7.25;;;21.00;99.90;;;;;;5076574;28;20016;-90
2021/06/19 11:59:23;;;;;;;8.43;7.60;;;20.80;99.90;;;;;;5079294;28;20025;-90
2021/06/19 12:01:50;;;;;;;11.02;7.53;;;20.70;99.90;;;;;;5076618;28;20028;-90
2021/06/19 12:04:17;;;;;;;11.00;7.90;;;20.90;99.90;;;;;;5076136;28;20162;-90
2021/06/19 12:06:51;;;;;;;10.80;8.05;;;21.10;99.90;;;;;;5077427;28;20025;-90
2021/06/19 12:09:18;;;;;;;8.68;7.82;;;21.10;99.90;;;;;;5077974;28;20031;-90
2021/06/19 12:11:45;;;;;;;7.68;6.80;;;21.10;99.90;;;;;;5077496;28;20017;-89
2021/06/19 12:14:24;;;;;;;9.68;8.20;;;21.00;99.90;;;;;;5076523;28;20028;-90
2021/06/19 12:16:52;;;;;;;8.85;7.32;;;20.90;99.90;;;;;;5076894;28;20025;-89
2021/06/19 12:19:23;;;;;;;9.90;7.90;;;21.00;99.90;;;;;;5077284;28;20112;-89
2021/06/19 12:21:49;;;;;;;8.15;7.35;;;20.80;99.90;;;;;;5077684;28;20086;-89
2021/06/19 12:24:42;;;;;;;11.05;7.47;;;21.00;99.90;;;;;;5075979;28;20051;-89
2021/06/19 12:27:24;;;;;;;8.43;7.63;;;21.40;99.90;;;;;;5073966;28;20041;-89
2021/06/19 12:29:54;;;;;;;9.33;7.97;;;21.50;99.90;;;;;;5077009;28;20474;-89
2021/06/19 12:32:39;;;;;;;12.10;8.13;;;21.70;99.90;;;;;;5077119;28;20911;-89
2021/06/19 12:35:15;;;;;;;7.95;7.15;;;21.70;99.90;;;;;;5076029;28;20507;-89
2021/06/19 12:37:57;;;;;;;8.55;7.68;;;21.80;99.90;;;;;;5075893;28;20028;-89
2021/06/19 12:40:34;;;;;;;7.97;7.18;;;22.30;99.90;;;;;;5075870;28;20028;-89
2021/06/19 12:43:00;;;;;;;8.88;7.97;;;22.50;99.90;;;;;;5075682;28;20436;-89
2021/06/19 12:45:58;;;;;;;11.15;8.35;;;22.90;99.90;;;;;;5076912;28;20043;-90